Saturday, April 18, 2015, 12:38 PM EDT

KTHV, York Airport

Location: Spring Grove, PA, United States Lat: 39.917
Local Time: 12:38 PM EDT (16:38 GMT) Lon: -76.883
Time Zone: US/Eastern Elev: 478 ft

Show me the last for .
Show Decoded

2015-04-18 11:53 METAR KTHV 181553Z AUTO 29004KT 10SM CLR 23/07 A3002 RMK AO2 SLP167 T02330067 =
2015-04-18 10:53 METAR KTHV 181453Z AUTO 00000KT 10SM CLR 22/06 A3004 RMK AO2 SLP173 T02220061
                 58002 =
2015-04-18 09:53 METAR KTHV 181353Z AUTO 34004KT 10SM CLR 20/09 A3004 RMK AO2 SLP174 T02000089 =
2015-04-18 08:53 METAR KTHV 181253Z AUTO 00000KT 10SM CLR 16/11 A3005 RMK AO2 SLP176 T01610106 =
2015-04-18 07:53 METAR KTHV 181153Z AUTO 00000KT 8SM CLR 12/10 A3004 RMK AO2 SLP175 T01170100
                 10117 20050 53016 =
2015-04-18 06:53 METAR KTHV 181053Z AUTO 00000KT 4SM BR CLR 06/06 A3003 RMK AO2 SLP172 T00610056
                 =
2015-04-18 05:53 METAR KTHV 180953Z AUTO 00000KT 3SM BR CLR 06/05 A3001 RMK AO2 SLP162 T00560050
                 =
2015-04-18 04:53 METAR KTHV 180853Z AUTO 00000KT 5SM BR CLR 06/06 A2999 RMK AO2 SLP158 T00610056
                 55002 =
2015-04-18 03:53 METAR KTHV 180753Z AUTO 27003KT 5SM BR CLR 06/06 A2999 RMK AO2 SLP157 T00610056
                 =
2015-04-18 02:53 METAR KTHV 180653Z AUTO 00000KT 5SM BR CLR 08/07 A2999 RMK AO2 SLP158 T00780067
                 =
2015-04-18 01:53 METAR KTHV 180553Z AUTO 00000KT 5SM BR CLR 08/07 A3000 RMK AO2 SLP161 T00780072
                 10194 20078 50003 =
2015-04-17 23:53 METAR KTHV 180353Z AUTO 00000KT 6SM BR CLR 09/08 A3000 RMK AO2 SLP161 T00890083
                 =
2015-04-17 22:53 METAR KTHV 180253Z AUTO 00000KT 7SM CLR 11/09 A2999 RMK AO2 SLP157 T01110094
                 51010 =
2015-04-17 20:53 METAR KTHV 180053Z AUTO 00000KT 9SM CLR 13/11 A2998 RMK AO2 SLP154 T01330106 =
2015-04-17 19:53 METAR KTHV 172353Z AUTO 34003KT 10SM FEW050 19/12 A2996 RMK AO2 SLP147 T01940117
                 10239 20194 53006 =
2015-04-17 18:53 METAR KTHV 172253Z AUTO 31005KT 10SM FEW080 22/12 A2994 RMK AO2 SLP140 T02170122
                 =
2015-04-17 17:53 METAR KTHV 172153Z AUTO 31010KT 10SM SCT060 OVC075 23/12 A2994 RMK AO2 SLP138
                 T02280117 =
2015-04-17 15:53 METAR KTHV 171953Z AUTO VRB03KT 10SM FEW041 FEW070 OVC090 23/14 A2997 RMK AO2
                 SLP147 T02330144 =
2015-04-17 14:53 METAR KTHV 171853Z AUTO 32006KT 9SM FEW033 SCT043 BKN080 22/14 A2999 RMK AO2
                 SLP155 T02220144 =
2015-04-17 13:53 METAR KTHV 171753Z AUTO 10SM SCT032 BKN080 22/14 A3001 RMK AO2 SLP161 T02170139
                 10217 20139 58019 =
2015-04-17 12:53 METAR KTHV 171653Z AUTO 28007KT 10SM FEW031 BKN075 OVC110 20/13 A3003 RMK AO2
                 SLP168 T02000133 =

Support USWX by starting your Amazon purchase here.